Time;durP1;ratioP1;P1;durP2;ratioP2;P2;SDS_P1;SDS_P2;PMS_P1;PMS_P2;Temp;Humidity;BMP_temperature;BMP_pressure;BME280_temperature;BME280_humidity;BME280_pressure;Samples;Min_cycle;Max_cycle;Signal;HPM_P1;HPM_P2
2022/04/20 00:00:03;;;;;;;3.55;2.10;;;;;;;9.56;44.32;150057.45;1663296;86;21278;-70
2022/04/20 00:02:33;;;;;;;5.62;2.02;;;;;;;9.59;44.00;150066.53;1662613;86;21049;-70
2022/04/20 00:05:00;;;;;;;5.80;2.72;;;;;;;9.62;43.94;150073.05;1662660;86;21006;-70
2022/04/20 00:07:27;;;;;;;6.15;2.12;;;;;;;9.64;43.84;150078.22;1662154;85;21121;-69
2022/04/20 00:09:55;;;;;;;2.62;1.92;;;;;;;9.66;43.87;150083.41;1662655;86;21542;-69
2022/04/20 00:12:24;;;;;;;3.52;2.17;;;;;;;9.65;44.00;150079.50;1662448;86;21069;-70
2022/04/20 00:14:52;;;;;;;6.42;2.20;;;;;;;9.65;44.02;150079.50;1663486;85;20943;-69
2022/04/20 00:17:21;;;;;;;5.97;2.45;;;;;;;9.63;44.02;150075.64;1662705;85;20998;-69
2022/04/20 00:19:49;;;;;;;4.83;2.30;;;;;;;9.62;44.06;150073.05;1663552;85;21070;-69
2022/04/20 00:22:17;;;;;;;2.90;2.08;;;;;;;9.64;44.10;150078.22;1662770;85;21192;-69
2022/04/20 00:24:45;;;;;;;5.22;1.80;;;;;;;9.69;43.99;150089.86;1663656;85;21843;-69
2022/04/20 00:27:12;;;;;;;3.60;1.80;;;;;;;9.70;43.69;150093.78;1663168;85;21105;-69
2022/04/20 00:29:41;;;;;;;5.55;2.22;;;;;;;9.72;43.44;150097.64;1663519;85;21563;-65
2022/04/20 00:32:10;;;;;;;3.92;1.85;;;;;;;9.74;43.20;150104.14;1663080;85;21538;-66
2022/04/20 00:34:38;;;;;;;3.15;1.60;;;;;;;9.78;43.02;150111.91;1663260;86;21049;-65
2022/04/20 00:37:06;;;;;;;2.87;1.67;;;;;;;9.79;43.08;150114.50;1663293;86;21058;-65
2022/04/20 00:39:34;;;;;;;3.75;2.08;;;;;;;9.80;42.96;150117.09;1663167;86;21085;-66
2022/04/20 00:42:01;;;;;;;4.55;2.00;;;;;;;9.80;42.94;150117.09;1663362;85;21030;-65
2022/04/20 00:44:29;;;;;;;4.25;2.00;;;;;;;9.81;42.97;150119.69;1662503;85;21049;-65
2022/04/20 00:46:57;;;;;;;4.83;2.27;;;;;;;9.79;43.10;150114.50;1660821;84;21035;-67
2022/04/20 00:49:26;;;;;;;5.17;2.35;;;;;;;9.74;43.33;150104.14;1632345;87;21603;-67
2022/04/20 00:51:57;;;;;;;3.10;1.87;;;;;;;9.69;43.67;150091.19;1660809;86;21514;-69
2022/04/20 00:54:27;;;;;;;3.52;2.10;;;;;;;9.68;43.96;150088.59;1660619;86;21141;-65
2022/04/20 00:56:54;;;;;;;4.72;2.10;;;;;;;9.66;44.01;150082.09;1660728;84;21534;-66
2022/04/20 00:59:24;;;;;;;3.55;2.22;;;;;;;9.66;44.13;150082.09;1660653;86;21514;-64
2022/04/20 01:01:53;;;;;;;4.17;1.92;;;;;;;9.62;44.44;150071.72;1632720;87;21426;-65
2022/04/20 01:04:23;;;;;;;3.65;2.00;;;;;;;9.59;45.00;150066.53;1660550;86;21032;-65
2022/04/20 01:07:15;;;;;;;3.95;2.10;;;;;;;9.58;45.21;150063.95;1658385;84;21070;-65
2022/04/20 01:09:46;;;;;;;7.50;3.47;;;;;;;9.55;45.55;150056.17;1605208;86;21061;-66
2022/04/20 01:12:18;;;;;;;5.20;2.27;;;;;;;9.52;45.92;150047.09;1656836;86;21102;-70
2022/04/20 01:14:57;;;;;;;3.77;2.40;;;;;;;9.46;46.29;150034.13;1659936;86;21278;-69
2022/04/20 01:17:46;;;;;;;4.58;2.15;;;;;;;9.43;46.67;150025.03;1660531;86;21140;-69
2022/04/20 01:20:16;;;;;;;3.75;2.20;;;;;;;9.41;46.93;150019.84;1658915;84;21120;-70
2022/04/20 01:22:49;;;;;;;4.50;2.40;;;;;;;9.40;47.20;150017.27;1593660;84;21007;-69
2022/04/20 01:25:28;;;;;;;4.78;2.17;;;;;;;9.37;47.54;150009.48;1657421;84;22235;-69
2022/04/20 01:28:01;;;;;;;4.12;2.15;;;;;;;9.36;47.77;150008.17;1659467;86;21168;-69
2022/04/20 01:30:45;;;;;;;4.60;2.55;;;;;;;9.33;47.98;150000.41;1545614;92;21172;-68
2022/04/20 01:33:19;;;;;;;6.20;3.42;;;;;;;9.32;48.24;149997.81;1628849;84;21546;-69
2022/04/20 01:35:48;;;;;;;5.33;2.72;;;;;;;9.29;48.54;149990.03;1661007;84;20990;-68
2022/04/20 01:38:17;;;;;;;5.05;2.85;;;;;;;9.27;48.92;149984.86;1632086;87;21060;-69
2022/04/20 01:40:45;;;;;;;5.10;2.52;;;;;;;9.24;49.25;149977.08;1632329;86;21145;-69
2022/04/20 01:43:12;;;;;;;5.70;2.33;;;;;;;9.19;49.65;149965.41;1661187;86;21149;-69
2022/04/20 01:45:43;;;;;;;6.45;3.08;;;;;;;9.14;50.03;149953.72;1662641;84;21088;-69
2022/04/20 01:48:14;;;;;;;5.15;2.70;;;;;;;9.10;50.30;149943.36;1662852;86;21069;-70
2022/04/20 01:53:40;;;;;;;4.40;2.35;;;;;;;9.00;50.68;149917.47;1663228;85;22134;-66
2022/04/20 01:56:14;;;;;;;4.30;2.65;;;;;;;8.92;50.87;149898.00;1663277;85;21177;-65
2022/04/20 01:58:59;;;;;;;;;;;;;;;8.91;51.07;149894.09;1668133;85;20935;-66
2022/04/20 02:04:18;;;;;;;5.22;2.47;;;;;;;8.84;51.45;149877.23;1665312;85;21141;-67
2022/04/20 02:06:46;;;;;;;4.60;2.12;;;;;;;8.83;51.59;149875.97;1665881;85;21255;-65
2022/04/20 02:09:15;;;;;;;5.87;2.50;;;;;;;8.83;51.74;149875.97;1664254;85;21061;-66
2022/04/20 02:11:48;;;;;;;9.23;2.42;;;;;;;8.83;51.88;149875.97;1665444;85;21490;-66
2022/04/20 02:14:22;;;;;;;5.62;2.35;;;;;;;8.82;52.12;149873.38;1664224;86;21068;-66
2022/04/20 02:16:52;;;;;;;4.95;2.27;;;;;;;8.81;52.33;149870.80;1665107;86;21555;-66
2022/04/20 02:19:26;;;;;;;5.37;2.37;;;;;;;8.81;52.58;149870.80;1665743;85;21101;-66
2022/04/20 02:22:01;;;;;;;;;;;;;;;8.79;52.91;149864.30;1667448;85;21368;-65
2022/04/20 02:24:28;;;;;;;4.53;2.47;;;;;;;8.76;53.10;149857.84;1665662;85;20197;-68
2022/04/20 02:27:02;;;;;;;6.45;2.60;;;;;;;8.74;53.32;149852.66;1666283;85;21077;-66
2022/04/20 02:29:32;;;;;;;6.08;2.60;;;;;;;8.72;53.56;149847.44;1666132;86;21076;-65
2022/04/20 02:31:59;;;;;;;6.42;3.05;;;;;;;8.70;53.72;149843.58;1666120;85;21878;-66
2022/04/20 02:34:27;;;;;;;4.70;2.60;;;;;;;8.68;54.00;149837.08;1665762;85;21053;-65
2022/04/20 02:36:58;;;;;;;4.05;2.42;;;;;;;8.65;54.27;149830.63;1666051;85;20998;-65
2022/04/20 02:39:25;;;;;;;3.62;2.40;;;;;;;8.65;54.36;149829.31;1665710;86;21270;-67
2022/04/20 02:41:52;;;;;;;4.47;2.60;;;;;;;8.63;54.53;149824.13;1666401;85;20958;-69
2022/04/20 02:44:19;;;;;;;4.40;2.55;;;;;;;8.59;54.69;149816.36;1665273;86;21247;-69
2022/04/20 02:46:46;;;;;;;8.55;2.77;;;;;;;8.56;54.85;149808.59;1663681;86;21098;-67
2022/04/20 02:49:13;;;;;;;5.33;2.60;;;;;;;8.53;54.98;149800.83;1663255;86;21069;-69
2022/04/20 02:51:40;;;;;;;5.08;2.30;;;;;;;8.52;55.16;149798.23;1663533;86;21054;-69
2022/04/20 02:54:08;;;;;;;5.72;2.87;;;;;;;8.52;55.40;149798.23;1663279;85;21074;-69
2022/04/20 02:56:37;;;;;;;4.85;2.55;;;;;;;8.50;55.72;149793.02;1663600;85;21037;-69
2022/04/20 02:59:04;;;;;;;4.05;2.45;;;;;;;8.49;55.98;149790.38;1663496;86;21057;-68
2022/04/20 03:01:33;;;;;;;4.10;2.65;;;;;;;8.45;56.24;149780.02;1663503;85;21121;-69
2022/04/20 03:04:02;;;;;;;3.47;2.30;;;;;;;8.44;56.51;149778.75;1663726;86;20958;-70
2022/04/20 03:06:31;;;;;;;5.67;2.80;;;;;;;8.45;56.68;149780.02;1663266;86;21046;-69
2022/04/20 03:09:00;;;;;;;6.30;2.37;;;;;;;8.45;56.73;149780.02;1663949;86;21320;-69
2022/04/20 03:11:29;;;;;;;4.85;2.75;;;;;;;8.46;56.79;149782.61;1663438;85;21467;-69
2022/04/20 03:13:57;;;;;;;4.42;2.42;;;;;;;8.46;56.87;149782.61;1663563;85;21078;-68
2022/04/20 03:16:26;;;;;;;4.10;2.47;;;;;;;8.46;56.89;149782.61;1663340;85;21049;-70
2022/04/20 03:18:56;;;;;;;5.00;2.52;;;;;;;8.45;56.71;149780.02;1663772;86;21490;-68
2022/04/20 03:21:25;;;;;;;4.65;2.27;;;;;;;8.44;56.68;149777.44;1663295;85;21295;-70
2022/04/20 03:23:54;;;;;;;4.78;2.45;;;;;;;8.44;56.57;149777.44;1663776;85;21436;-70
2022/04/20 03:26:23;;;;;;;4.97;2.27;;;;;;;8.46;56.37;149782.61;1662604;85;21005;-70
2022/04/20 03:28:52;;;;;;;4.03;2.30;;;;;;;8.47;56.22;149785.19;1661239;85;21003;-70
2022/04/20 03:31:19;;;;;;;4.83;2.33;;;;;;;8.48;56.14;149787.78;1663343;85;21072;-68
2022/04/20 03:33:46;;;;;;;7.03;2.45;;;;;;;8.49;56.43;149789.11;1663492;86;21871;-69
2022/04/20 03:36:14;;;;;;;4.20;2.47;;;;;;;8.49;56.70;149790.38;1663126;85;21073;-70
2022/04/20 03:38:41;;;;;;;7.35;2.40;;;;;;;8.50;56.76;149793.02;1663667;85;20993;-70
2022/04/20 03:41:09;;;;;;;5.67;2.58;;;;;;;8.51;56.89;149794.33;1663177;86;21072;-69
2022/04/20 03:43:36;;;;;;;3.67;2.30;;;;;;;8.51;57.13;149795.66;1663447;85;21073;-67
2022/04/20 03:46:05;;;;;;;3.85;2.60;;;;;;;8.51;57.37;149794.33;1662538;86;21009;-66
2022/04/20 03:48:36;;;;;;;3.83;2.35;;;;;;;8.52;57.46;149798.23;1661256;84;21080;-67
2022/04/20 03:51:03;;;;;;;4.60;2.62;;;;;;;8.52;57.20;149798.23;1661407;86;21034;-65
2022/04/20 03:53:32;;;;;;;5.40;2.27;;;;;;;8.53;57.50;149800.83;1660998;86;21097;-66
2022/04/20 03:55:59;;;;;;;4.10;2.52;;;;;;;8.55;57.68;149806.00;1661404;84;20931;-65
2022/04/20 03:58:27;;;;;;;5.10;3.00;;;;;;;8.56;57.92;149808.59;1660986;86;21655;-65
2022/04/20 04:00:54;;;;;;;4.22;2.67;;;;;;;8.54;58.18;149803.42;1661495;85;20947;-65
2022/04/20 04:03:21;;;;;;;4.55;2.60;;;;;;;8.53;58.54;149800.83;1661307;85;21093;-69
2022/04/20 04:05:49;;;;;;;4.37;2.62;;;;;;;8.51;59.00;149794.33;1661410;85;21065;-70
2022/04/20 04:08:20;;;;;;;5.12;2.50;;;;;;;8.49;59.51;149790.38;1661182;84;21124;-68
2022/04/20 04:10:49;;;;;;;4.42;2.70;;;;;;;8.47;59.83;149785.19;1633279;86;21506;-69
2022/04/20 04:13:17;;;;;;;5.65;2.60;;;;;;;8.45;60.18;149780.02;1660955;84;21077;-69
2022/04/20 04:15:49;;;;;;;6.03;2.50;;;;;;;8.46;60.19;149782.61;1661221;86;21050;-69
2022/04/20 04:18:18;;;;;;;4.28;2.75;;;;;;;8.44;60.32;149777.44;1632815;87;21000;-68
2022/04/20 04:20:49;;;;;;;5.53;2.85;;;;;;;8.43;60.56;149776.16;1661223;86;20981;-69
2022/04/20 04:23:17;;;;;;;4.03;2.40;;;;;;;8.41;61.14;149769.66;1661155;86;21261;-70
2022/04/20 04:25:56;;;;;;;6.50;3.12;;;;;;;8.37;61.24;149759.31;1660662;84;21469;-69
2022/04/20 04:28:26;;;;;;;5.42;2.67;;;;;;;8.36;61.48;149756.72;1658143;86;21753;-69
2022/04/20 04:30:53;;;;;;;4.92;2.62;;;;;;;8.36;62.40;149756.72;1660888;85;21042;-69
2022/04/20 04:33:22;;;;;;;5.50;2.42;;;;;;;8.29;63.34;149741.19;1631881;86;21151;-68
2022/04/20 04:35:50;;;;;;;5.83;3.00;;;;;;;8.23;63.93;149725.61;1661049;85;21443;-70
2022/04/20 04:38:19;;;;;;;4.97;2.98;;;;;;;8.19;64.68;149715.25;1631875;86;21072;-68
2022/04/20 04:40:47;;;;;;;5.37;3.17;;;;;;;8.16;65.29;149707.48;1660834;85;21104;-69
2022/04/20 04:43:14;;;;;;;4.95;2.83;;;;;;;8.12;65.54;149698.41;1660254;84;21085;-69
2022/04/20 04:48:36;;;;;;;5.72;3.02;;;;;;;8.06;66.58;149682.88;1661397;86;22000;-69
2022/04/20 04:51:03;;;;;;;5.80;2.92;;;;;;;8.07;67.01;149684.14;1662504;85;21057;-69
2022/04/20 04:53:32;;;;;;;5.33;3.17;;;;;;;8.07;67.12;149684.14;1662699;85;21128;-71
2022/04/20 04:56:02;;;;;;;5.67;2.92;;;;;;;8.09;67.02;149690.64;1663090;85;20930;-70
2022/04/20 04:58:31;;;;;;;4.22;2.58;;;;;;;8.12;66.94;149697.13;1662469;85;21298;-70
2022/04/20 05:01:01;;;;;;;7.55;3.15;;;;;;;8.11;66.09;149694.55;1663102;85;21412;-66
2022/04/20 05:03:29;;;;;;;4.97;2.80;;;;;;;8.11;66.45;149694.55;1662940;86;21081;-67
2022/04/20 05:05:57;;;;;;;5.55;3.05;;;;;;;8.13;67.12;149699.72;1663264;85;21042;-66
2022/04/20 05:08:44;;;;;;;4.08;2.75;;;;;;;8.17;67.61;149711.34;1663140;85;21089;-67
2022/04/20 05:11:13;;;;;;;4.80;2.85;;;;;;;8.21;67.98;149719.16;1662320;86;22114;-67
2022/04/20 05:13:43;;;;;;;7.28;3.20;;;;;;;8.24;67.76;149728.19;1663019;85;21753;-67
2022/04/20 05:16:12;;;;;;;5.10;2.83;;;;;;;8.27;67.88;149735.97;1663045;85;21666;-67
2022/04/20 05:18:39;;;;;;;5.58;2.60;;;;;;;8.34;67.89;149751.53;1662607;86;21101;-67
2022/04/20 05:21:09;;;;;;;4.58;2.83;;;;;;;8.38;67.71;149761.89;1662430;85;20962;-67
2022/04/20 05:23:37;;;;;;;4.55;2.70;;;;;;;8.41;67.66;149770.98;1662575;85;21167;-67
2022/04/20 05:26:06;;;;;;;6.50;2.95;;;;;;;8.46;67.92;149783.92;1662816;85;21026;-66
2022/04/20 05:28:36;;;;;;;6.10;3.27;;;;;;;8.49;68.00;149790.38;1663027;85;21081;-68
2022/04/20 05:31:04;;;;;;;8.68;3.50;;;;;;;8.51;68.16;149794.33;1662971;86;20927;-67
2022/04/20 05:33:34;;;;;;;5.20;2.92;;;;;;;8.50;68.49;149793.02;1638214;86;21441;-66
2022/04/20 05:36:02;;;;;;;7.08;3.72;;;;;;;8.46;68.22;149783.92;1663548;85;20975;-67
2022/04/20 05:44:05;;;;;;;4.20;2.83;;;;;;;8.30;69.17;149742.45;1663795;85;21160;-65
2022/04/20 05:46:33;;;;;;;6.35;2.72;;;;;;;8.24;69.23;149728.19;1663001;85;21654;-66
2022/04/20 05:49:09;;;;;;;4.90;2.47;;;;;;;8.17;69.66;149710.08;1662929;85;21037;-65
2022/04/20 05:51:37;;;;;;;4.03;2.67;;;;;;;8.13;70.42;149699.72;1662955;85;21248;-66
2022/04/20 05:54:05;;;;;;;5.00;2.70;;;;;;;8.11;70.56;149695.81;1663508;85;21068;-66
2022/04/20 05:56:34;;;;;;;4.03;2.50;;;;;;;8.04;71.05;149677.69;1663151;85;21088;-67
2022/04/20 05:59:03;;;;;;;3.98;2.65;;;;;;;7.96;71.46;149658.27;1663314;85;21357;-67
2022/04/20 06:01:33;;;;;;;5.30;2.80;;;;;;;7.91;71.93;149645.31;1663011;85;21144;-71
2022/04/20 06:04:02;;;;;;;7.03;3.05;;;;;;;7.86;72.19;149632.38;1662318;85;22078;-66
2022/04/20 06:06:35;;;;;;;5.20;2.80;;;;;;;7.82;72.41;149623.30;1663001;86;21008;-70
2022/04/20 06:09:06;;;;;;;4.28;2.55;;;;;;;7.83;73.02;149624.56;1660295;86;21487;-70
2022/04/20 06:11:41;;;;;;;7.90;3.17;;;;;;;7.84;73.07;149627.16;1663592;85;21054;-70
2022/04/20 06:14:12;;;;;;;5.80;2.90;;;;;;;7.84;72.98;149628.47;1663543;85;21325;-70
2022/04/20 06:16:51;;;;;;;5.55;3.30;;;;;;;7.81;73.38;149619.39;1662369;85;21089;-70
2022/04/20 06:19:20;;;;;;;6.37;3.50;;;;;;;7.86;73.63;149632.38;1662067;86;21053;-66
2022/04/20 06:21:49;;;;;;;4.75;3.50;;;;;;;7.92;73.63;149647.91;1650951;85;21097;-67
2022/04/20 06:24:18;;;;;;;6.05;3.52;;;;;;;7.99;73.62;149666.03;1662493;86;21109;-67
2022/04/20 06:26:57;;;;;;;5.25;3.25;;;;;;;8.09;73.71;149689.38;1661819;85;21299;-70
2022/04/20 06:29:45;;;;;;;8.95;3.52;;;;;;;8.19;73.84;149715.25;1661711;85;21149;-70
2022/04/20 06:32:32;;;;;;;5.55;3.00;;;;;;;8.26;72.58;149733.38;1662554;85;21069;-70
2022/04/20 06:35:05;;;;;;;4.30;2.50;;;;;;;8.29;72.05;149741.19;1655546;85;20962;-70
2022/04/20 06:37:40;;;;;;;5.33;2.50;;;;;;;8.33;71.76;149748.95;1660150;85;21159;-67
2022/04/20 06:40:15;;;;;;;;;;;;;;;8.37;71.87;149759.31;1631003;86;21626;-66
2022/04/20 06:42:45;;;;;;;3.92;2.62;;;;;;;8.45;72.06;149781.34;1661543;86;20196;-70
2022/04/20 06:45:27;;;;;;;3.72;2.50;;;;;;;8.52;72.17;149798.23;1659396;86;21159;-67
2022/04/20 06:48:06;;;;;;;5.22;3.17;;;;;;;8.60;72.05;149817.63;1623653;86;21137;-67
2022/04/20 06:50:40;;;;;;;4.90;2.92;;;;;;;8.72;72.08;149847.44;1639810;86;21114;-66
2022/04/20 06:58:50;;;;;;;5.85;4.12;;;;;;;9.14;71.70;149953.72;1638407;86;21063;-66
2022/04/20 07:01:39;;;;;;;10.30;5.80;;;;;;;9.27;70.94;149986.13;1583763;90;21148;-66
2022/04/20 07:04:25;;;;;;;8.73;3.75;;;;;;;9.41;70.79;150021.17;1583584;90;21702;-65
2022/04/20 07:07:11;;;;;;;5.87;3.62;;;;;;;9.55;70.29;150054.86;1617409;86;20988;-65
2022/04/20 07:09:40;;;;;;;7.87;3.62;;;;;;;9.65;69.17;150080.81;1623124;86;21243;-65
2022/04/20 07:12:13;;;;;;;4.25;2.87;;;;;;;9.71;68.58;150096.36;1639354;86;21071;-65
2022/04/20 07:14:42;;;;;;;5.25;2.77;;;;;;;9.82;68.40;150122.28;1639193;87;21123;-66
2022/04/20 07:17:09;;;;;;;4.42;3.08;;;;;;;9.88;68.63;150137.88;1657797;85;21393;-65
2022/04/20 07:19:46;;;;;;;6.60;3.58;;;;;;;9.99;68.99;150166.39;1639451;85;21047;-66
2022/04/20 07:22:21;;;;;;;6.12;3.20;;;;;;;10.15;69.13;150205.31;1638484;86;21584;-66
2022/04/20 07:24:50;;;;;;;9.33;3.92;;;;;;;10.27;68.77;150235.16;1639858;85;21666;-67
2022/04/20 07:27:22;;;;;;;6.95;3.72;;;;;;;10.38;68.22;150262.41;1625692;86;21403;-65
2022/04/20 07:30:10;;;;;;;5.67;3.25;;;;;;;10.49;67.50;150290.97;1639106;87;21050;-66
2022/04/20 07:32:57;;;;;;;6.87;4.03;;;;;;;10.62;66.91;150322.14;1639592;87;21019;-66
2022/04/20 07:35:37;;;;;;;6.75;3.72;;;;;;;10.77;65.92;150361.09;1583919;87;21208;-66
2022/04/20 07:38:06;;;;;;;7.53;3.42;;;;;;;10.88;65.92;150389.63;1640455;86;21067;-66
2022/04/20 07:40:52;;;;;;;6.08;3.83;;;;;;;10.95;65.58;150405.22;1639105;87;21109;-64
2022/04/20 07:43:23;;;;;;;7.50;3.67;;;;;;;11.00;65.27;150419.47;1638548;86;21580;-66
2022/04/20 07:46:08;;;;;;;7.70;3.83;;;;;;;11.01;65.42;150422.06;1639939;85;21609;-66
2022/04/20 07:48:38;;;;;;;5.35;3.80;;;;;;;11.03;65.28;150425.98;1668507;84;21649;-66
2022/04/20 07:51:07;;;;;;;8.23;3.77;;;;;;;11.07;65.19;150436.36;1659253;84;21055;-66
2022/04/20 07:53:35;;;;;;;6.87;4.22;;;;;;;11.12;65.51;150449.33;1667988;84;21099;-66
2022/04/20 07:56:17;;;;;;;6.08;3.72;;;;;;;11.16;65.53;150459.75;1668874;84;21534;-68
2022/04/20 07:58:47;;;;;;;11.20;4.40;;;;;;;11.22;65.17;150474.00;1668557;84;21039;-69
2022/04/20 08:01:29;;;;;;;7.42;3.65;;;;;;;11.28;64.88;150488.28;1641732;85;21534;-68
2022/04/20 08:04:02;;;;;;;5.92;3.52;;;;;;;11.34;64.52;150503.86;1659443;85;20921;-70
2022/04/20 08:06:37;;;;;;;;;;;;;;;11.39;63.12;150516.88;1657775;85;21155;-65
2022/04/20 08:09:06;;;;;;;6.87;4.05;;;;;;;11.45;61.45;150531.12;1665361;86;20153;-65
2022/04/20 08:11:34;;;;;;;5.78;3.87;;;;;;;11.54;60.58;150553.20;1666974;85;21068;-65
2022/04/20 08:14:10;;;;;;;4.92;3.60;;;;;;;11.63;60.36;150576.61;1664793;85;21135;-66
2022/04/20 08:16:39;;;;;;;5.70;3.90;;;;;;;11.77;59.73;150610.34;1665924;84;21155;-66
2022/04/20 08:19:18;;;;;;;5.65;3.67;;;;;;;11.92;58.73;150649.33;1632523;86;21111;-66
2022/04/20 08:21:53;;;;;;;12.30;3.27;;;;;;;12.03;57.79;150677.92;1647512;85;21037;-65
2022/04/20 08:24:22;;;;;;;5.90;3.37;;;;;;;12.15;57.05;150706.53;1665137;85;21092;-70
2022/04/20 08:26:49;;;;;;;9.08;3.87;;;;;;;12.21;56.29;150722.09;1665654;86;21292;-68
2022/04/20 08:29:18;;;;;;;5.78;3.10;;;;;;;12.27;55.45;150736.41;1667104;85;22096;-66
2022/04/20 08:31:46;;;;;;;5.58;3.45;;;;;;;12.26;54.86;150735.09;1668290;85;21059;-66
2022/04/20 08:34:13;;;;;;;4.25;3.00;;;;;;;12.31;54.97;150748.11;1653879;85;21198;-66
2022/04/20 08:36:40;;;;;;;8.48;3.98;;;;;;;12.48;55.58;150789.66;1627242;87;21146;-65
2022/04/20 08:39:07;;;;;;;5.50;3.55;;;;;;;12.55;55.90;150807.89;1641697;86;21580;-66
2022/04/20 08:41:35;;;;;;;5.87;3.72;;;;;;;12.57;55.90;150813.08;1645839;85;21056;-68
2022/04/20 08:44:05;;;;;;;7.90;3.47;;;;;;;12.55;55.85;150807.89;1667126;86;21013;-69
2022/04/20 08:46:36;;;;;;;4.60;3.15;;;;;;;12.56;55.58;150810.48;1667730;84;21525;-68
2022/04/20 08:49:04;;;;;;;7.00;3.72;;;;;;;12.65;54.62;150832.58;1664162;86;20944;-69
2022/04/20 08:52:37;;;;;;;5.95;3.27;;;;;;;12.73;53.09;150853.36;1655922;85;21138;-69
2022/04/20 08:54:01;;;;;;;6.97;3.12;;;;;;;12.73;52.31;150852.08;1655394;86;21409;-69
2022/04/20 08:59:15;;;;;;;5.62;3.20;;;;;;;12.57;50.97;150811.75;1665737;85;21519;-66
2022/04/20 09:01:42;;;;;;;7.72;3.22;;;;;;;12.43;51.42;150776.67;1665969;85;21053;-66
2022/04/20 09:04:09;;;;;;;4.42;2.90;;;;;;;12.30;51.45;150745.52;1665673;86;21129;-66
2022/04/20 09:06:39;;;;;;;4.42;3.00;;;;;;;12.25;51.99;150732.50;1665583;85;21105;-69
2022/04/20 09:09:07;;;;;;;4.70;3.22;;;;;;;12.23;52.18;150726.03;1619749;86;21105;-69
2022/04/20 09:11:36;;;;;;;6.00;3.17;;;;;;;12.14;51.89;150703.94;1665621;86;21113;-69
2022/04/20 09:14:17;;;;;;;5.30;2.80;;;;;;;12.01;52.11;150672.73;1658452;86;20995;-69
2022/04/20 09:16:43;;;;;;;6.15;4.00;;;;;;;11.93;52.66;150651.92;1599416;88;21012;-66
2022/04/20 09:19:11;;;;;;;5.12;3.67;;;;;;;11.86;52.78;150633.75;1660326;84;21435;-65
2022/04/20 09:21:41;;;;;;;7.50;3.85;;;;;;;11.82;52.29;150623.31;1734243;82;21034;-65
2022/04/20 09:24:10;;;;;;;6.17;3.90;;;;;;;11.80;52.23;150618.12;1731265;82;21152;-65
2022/04/20 09:26:53;;;;;;;5.72;3.52;;;;;;;11.80;52.42;150618.12;1697694;84;21365;-66
2022/04/20 09:29:21;;;;;;;4.97;3.58;;;;;;;11.85;53.00;150631.16;1730204;82;21893;-65
2022/04/20 09:31:51;;;;;;;6.87;3.22;;;;;;;11.92;52.87;150649.33;1729666;82;21101;-68
2022/04/20 09:34:34;;;;;;;8.78;3.05;;;;;;;12.00;52.51;150670.09;1733679;81;21086;-69
2022/04/20 09:37:13;;;;;;;5.25;3.27;;;;;;;12.14;52.21;150705.20;1733682;81;20889;-64
2022/04/20 09:39:48;;;;;;;6.33;3.20;;;;;;;12.36;51.72;150758.50;1733627;82;21143;-66
2022/04/20 09:42:15;;;;;;;7.55;3.40;;;;;;;12.57;50.48;150813.08;1734126;82;21247;-66
2022/04/20 09:44:54;;;;;;;7.05;3.10;;;;;;;12.73;49.82;150852.08;1704820;83;21102;-67
2022/04/20 09:50:10;;;;;;;5.90;3.12;;;;;;;12.86;48.59;150885.84;1734004;82;21082;-69
2022/04/20 09:52:43;;;;;;;4.60;3.08;;;;;;;12.89;48.72;150892.37;1734180;82;21106;-68
2022/04/20 09:55:18;;;;;;;4.27;2.80;;;;;;;12.99;48.61;150917.06;1733844;82;21895;-66
2022/04/20 09:57:46;;;;;;;4.90;3.08;;;;;;;13.06;47.62;150933.97;1733131;82;21105;-66
2022/04/20 10:00:15;;;;;;;4.12;2.90;;;;;;;13.10;47.35;150944.36;1734454;82;21075;-66
2022/04/20 10:02:53;;;;;;;7.92;2.52;;;;;;;13.25;47.39;150983.34;1734585;82;21003;-66
2022/04/20 10:05:22;;;;;;;6.28;2.87;;;;;;;13.41;46.81;151022.34;1733098;82;21120;-66
2022/04/20 10:07:58;;;;;;;5.95;3.17;;;;;;;13.51;46.08;151047.11;1699076;84;21238;-65
2022/04/20 10:10:23;;;;;;;4.47;3.17;;;;;;;13.55;45.10;151057.50;1699760;83;21008;-65
2022/04/20 10:12:54;;;;;;;5.12;2.80;;;;;;;13.51;44.96;151047.11;1699906;83;21077;-66
2022/04/20 10:18:17;;;;;;;7.65;3.02;;;;;;;13.57;44.57;151064.03;1698731;84;21032;-65
2022/04/20 10:20:57;;;;;;;6.42;3.30;;;;;;;13.66;44.17;151086.14;1697262;84;21049;-66
2022/04/20 10:23:29;;;;;;;4.55;3.10;;;;;;;13.72;43.84;151101.73;1697403;84;21046;-66
2022/04/20 10:25:58;;;;;;;4.78;2.62;;;;;;;13.81;43.41;151123.84;1697565;84;21462;-66
2022/04/20 10:29:10;;;;;;;4.90;2.72;;;;;;;13.92;43.23;151151.17;1696865;84;20978;-65
2022/04/20 10:31:54;;;;;;;4.20;3.02;;;;;;;14.02;42.81;151177.16;1697094;84;21303;-66
2022/04/20 10:34:21;;;;;;;5.08;2.50;;;;;;;14.20;42.04;151221.41;1694720;84;21591;-66
2022/04/20 10:37:04;;;;;;;7.85;2.67;;;;;;;14.30;42.17;151247.45;1666398;86;21552;-68
2022/04/20 10:39:40;;;;;;;6.20;2.98;;;;;;;14.37;42.95;151264.38;1696871;83;21049;-68
2022/04/20 10:42:17;;;;;;;4.00;2.55;;;;;;;14.37;43.42;151263.05;1696247;83;21054;-68
2022/04/20 10:45:08;;;;;;;4.97;2.72;;;;;;;14.45;43.12;151283.84;1675705;84;21110;-68
2022/04/20 10:47:37;;;;;;;5.70;2.87;;;;;;;14.47;43.07;151289.05;1696280;83;21169;-69
2022/04/20 10:50:22;;;;;;;6.10;2.65;;;;;;;14.42;42.85;151276.05;1696143;83;20986;-69
2022/04/20 10:53:04;;;;;;;5.25;2.98;;;;;;;14.31;43.58;151250.05;1697074;84;21359;-69
2022/04/20 10:55:41;;;;;;;4.92;3.50;;;;;;;14.16;44.04;151212.33;1731146;81;21051;-68
2022/04/20 10:58:22;;;;;;;5.28;3.30;;;;;;;14.14;43.98;151205.81;1734182;81;21494;-68
2022/04/20 11:01:09;;;;;;;4.37;3.17;;;;;;;14.16;43.74;151211.00;1733751;81;21528;-69
2022/04/20 11:04:05;;;;;;;4.60;3.00;;;;;;;14.26;43.49;151237.05;1729457;81;21132;-69
2022/04/20 11:07:06;;;;;;;3.55;2.77;;;;;;;14.39;42.85;151268.25;1698797;84;21164;-70
2022/04/20 11:09:52;;;;;;;7.30;2.70;;;;;;;14.46;42.62;151286.45;1696006;84;21025;-66
2022/04/20 11:18:39;;;;;;;3.70;2.70;;;;;;;14.52;42.25;151302.11;1698278;84;21531;-65
2022/04/20 11:21:26;;;;;;;6.42;2.62;;;;;;;14.40;41.91;151270.84;1739245;82;20982;-65
2022/04/20 11:24:07;;;;;;;4.42;2.80;;;;;;;14.29;41.80;151244.84;1710336;82;21028;-66
2022/04/20 11:26:43;;;;;;;5.85;2.85;;;;;;;14.27;41.98;151239.66;1738343;82;21137;-66
2022/04/20 11:29:19;;;;;;;4.90;2.80;;;;;;;14.28;41.88;151242.25;1739416;82;21864;-65
2022/04/20 11:31:48;;;;;;;4.15;2.83;;;;;;;14.20;42.42;151220.13;1739817;81;21019;-65
2022/04/20 11:34:20;;;;;;;5.25;3.25;;;;;;;13.95;42.97;151158.97;1749314;81;20991;-66
2022/04/20 11:36:51;;;;;;;9.20;3.72;;;;;;;13.78;43.55;151114.72;1740006;82;21057;-66
2022/04/20 11:39:21;;;;;;;5.08;3.40;;;;;;;13.53;44.19;151053.64;1756613;81;21192;-69
2022/04/20 11:41:58;;;;;;;6.35;3.02;;;;;;;13.33;45.01;151002.84;1705332;84;21962;-67
2022/04/20 11:44:29;;;;;;;7.75;3.35;;;;;;;13.22;45.77;150974.27;1706235;83;21030;-67
2022/04/20 11:47:07;;;;;;;5.87;3.20;;;;;;;13.13;46.41;150953.44;1708945;82;21526;-68
2022/04/20 11:49:42;;;;;;;4.17;2.85;;;;;;;13.12;46.93;150950.84;1703953;84;21103;-68
2022/04/20 11:52:14;;;;;;;3.47;2.55;;;;;;;13.20;47.02;150970.34;1703927;82;21001;-65
2022/04/20 11:54:45;;;;;;;7.80;2.80;;;;;;;13.25;47.05;150982.06;1672109;84;21017;-69
2022/04/20 11:57:16;;;;;;;5.08;3.15;;;;;;;13.24;48.13;150979.45;1703852;82;21109;-67
2022/04/20 11:59:48;;;;;;;6.12;3.00;;;;;;;13.18;50.21;150965.16;1721464;82;21066;-66
2022/04/20 12:02:17;;;;;;;4.42;3.15;;;;;;;13.04;51.15;150931.38;1703363;84;21048;-68
2022/04/20 12:04:46;;;;;;;6.20;3.35;;;;;;;12.89;51.80;150893.64;1703781;84;21093;-69
2022/04/20 12:07:16;;;;;;;7.10;3.58;;;;;;;12.73;52.92;150852.08;1703404;84;21141;-68
2022/04/20 12:09:45;;;;;;;4.85;3.20;;;;;;;12.50;53.74;150794.91;1703093;82;21065;-69
2022/04/20 12:12:16;;;;;;;4.92;3.25;;;;;;;12.16;54.57;150709.13;1703297;82;21207;-69
2022/04/20 12:14:43;;;;;;;7.90;3.17;;;;;;;11.79;55.59;150615.53;1705133;82;21068;-70
2022/04/20 12:17:22;;;;;;;4.15;2.72;;;;;;;11.44;56.69;150529.84;1702137;84;21037;-68
2022/04/20 12:19:53;;;;;;;7.60;3.35;;;;;;;11.20;58.67;150468.81;1740560;81;21528;-70
2022/04/20 12:22:21;;;;;;;7.60;3.25;;;;;;;11.00;59.42;150418.20;1745257;81;20964;-69
2022/04/20 12:24:58;;;;;;;7.17;3.42;;;;;;;10.87;60.25;150387.02;1727869;81;21119;-68
2022/04/20 12:27:25;;;;;;;5.30;3.50;;;;;;;10.77;60.24;150361.09;1654290;85;21081;-68